createdAt,value
2023-04-02T00:01:40.717Z,6.00
2023-04-02T00:04:16.933Z,8.40
2023-04-02T00:06:46.928Z,8.55
2023-04-02T00:09:13.345Z,6.88
2023-04-02T00:11:43.264Z,6.93
2023-04-02T00:14:21.948Z,6.05
2023-04-02T00:16:48.623Z,6.00
2023-04-02T00:19:23.196Z,8.70
2023-04-02T00:21:51.948Z,7.75
2023-04-02T00:24:24.967Z,7.20
2023-04-02T00:26:55.718Z,9.07
2023-04-02T00:29:30.394Z,8.90
2023-04-02T00:31:59.831Z,8.20
2023-04-02T00:34:31.745Z,7.75
2023-04-02T00:39:33.102Z,12.75
2023-04-02T00:42:05.995Z,10.77
2023-04-02T00:44:44.613Z,9.90
2023-04-02T00:47:20.354Z,13.30
2023-04-02T00:49:49.013Z,13.50
2023-04-02T00:52:18.600Z,16.52
2023-04-02T00:55:13.906Z,10.82
2023-04-02T00:57:47.798Z,12.00
2023-04-02T01:00:22.973Z,10.32
2023-04-02T01:03:17.295Z,10.65
2023-04-02T01:05:50.841Z,13.55
2023-04-02T01:08:25.775Z,10.73
2023-04-02T01:11:16.241Z,12.75
2023-04-02T01:13:57.043Z,8.55
2023-04-02T01:16:33.146Z,15.60
2023-04-02T01:19:28.589Z,17.45
2023-04-02T01:22:08.004Z,13.30
2023-04-02T01:24:37.270Z,20.35
2023-04-02T01:27:18.406Z,16.65
2023-04-02T01:29:57.975Z,18.53
2023-04-02T01:32:31.431Z,17.42
2023-04-02T01:35:03.927Z,17.35
2023-04-02T01:37:46.741Z,16.80
2023-04-02T01:40:19.427Z,17.50
2023-04-02T01:43:16.972Z,13.45
2023-04-02T01:45:44.466Z,17.80
2023-04-02T01:48:21.044Z,17.00
2023-04-02T01:50:51.371Z,14.25
2023-04-02T01:53:23.930Z,18.80
2023-04-02T01:55:56.808Z,10.05
2023-04-02T01:58:29.211Z,15.18
2023-04-02T02:01:06.032Z,16.10
2023-04-02T02:03:34.246Z,17.05
2023-04-02T02:06:02.316Z,15.55
2023-04-02T02:08:39.145Z,13.30
2023-04-02T02:11:14.074Z,18.02
2023-04-02T02:13:46.632Z,11.57
2023-04-02T02:16:20.570Z,15.32
2023-04-02T02:18:53.855Z,13.40
2023-04-02T02:21:44.475Z,10.20
2023-04-02T02:24:27.807Z,11.43
2023-04-02T02:27:21.367Z,12.45
2023-04-02T02:29:53.988Z,11.10
2023-04-02T02:32:35.047Z,10.82
2023-04-02T02:35:27.249Z,11.98
2023-04-02T02:40:36.571Z,16.73
2023-04-02T02:43:06.443Z,13.25
2023-04-02T02:45:38.886Z,14.80
2023-04-02T02:48:11.184Z,12.40
2023-04-02T02:50:38.723Z,13.02
2023-04-02T02:53:15.722Z,8.07
2023-04-02T02:55:42.499Z,11.77
2023-04-02T02:58:31.460Z,14.25
2023-04-02T03:00:59.095Z,12.82
2023-04-02T03:03:29.018Z,10.88
2023-04-02T03:06:09.393Z,10.20
2023-04-02T03:08:48.634Z,12.77
2023-04-02T03:11:37.279Z,13.85
2023-04-02T03:14:13.687Z,11.63
2023-04-02T03:16:52.809Z,14.30
2023-04-02T03:19:31.319Z,12.40
2023-04-02T03:22:07.903Z,13.32
2023-04-02T03:25:03.407Z,11.50
2023-04-02T03:27:34.534Z,10.90
2023-04-02T03:30:25.220Z,12.15
2023-04-02T03:32:58.120Z,8.07
2023-04-02T03:35:35.534Z,8.75
2023-04-02T03:38:14.673Z,11.30
2023-04-02T03:40:49.713Z,12.52
2023-04-02T03:43:24.528Z,10.95
2023-04-02T03:45:56.507Z,8.57
2023-04-02T03:48:39.349Z,10.23
2023-04-02T03:51:24.620Z,7.70
2023-04-02T03:53:51.185Z,12.18
2023-04-02T03:56:29.506Z,10.85
2023-04-02T03:59:30.448Z,11.48
2023-04-02T04:02:02.111Z,8.65
2023-04-02T04:04:31.649Z,13.68
2023-04-02T04:07:00.538Z,9.02
2023-04-02T04:09:34.343Z,11.38
2023-04-02T04:12:24.026Z,9.85
2023-04-02T04:14:58.624Z,11.15
2023-04-02T04:17:41.499Z,13.57
2023-04-02T04:20:23.584Z,10.18
2023-04-02T04:25:25.443Z,9.25
2023-04-02T04:28:10.647Z,10.75
2023-04-02T04:30:50.941Z,16.02
2023-04-02T04:33:34.549Z,14.05
2023-04-02T04:36:03.210Z,14.13
2023-04-02T04:38:35.599Z,11.50
2023-04-02T04:41:04.898Z,11.38
2023-04-02T04:43:40.185Z,16.75
2023-04-02T04:46:14.420Z,14.65
2023-04-02T04:48:52.137Z,13.68
2023-04-02T04:51:39.425Z,12.55
2023-04-02T04:54:05.973Z,11.80
2023-04-02T04:56:33.016Z,11.40
2023-04-02T04:59:12.764Z,9.98
2023-04-02T05:01:45.277Z,11.68
2023-04-02T05:04:27.071Z,9.38
2023-04-02T05:07:03.567Z,13.82
2023-04-02T05:09:36.790Z,17.75
2023-04-02T05:12:06.566Z,11.38
2023-04-02T05:14:40.865Z,16.42
2023-04-02T05:17:17.076Z,12.85
2023-04-02T05:19:49.080Z,11.27
2023-04-02T05:22:34.920Z,11.15
2023-04-02T05:25:15.250Z,10.13
2023-04-02T05:27:52.581Z,10.90
2023-04-02T05:30:25.022Z,11.65
2023-04-02T05:33:00.321Z,8.98
2023-04-02T05:35:34.939Z,5.88
2023-04-02T05:38:02.366Z,9.70
2023-04-02T05:40:39.909Z,11.32
2023-04-02T05:43:10.964Z,9.38
2023-04-02T05:45:41.699Z,9.40
2023-04-02T05:48:22.080Z,10.70
2023-04-02T05:50:54.311Z,9.35
2023-04-02T05:53:48.983Z,10.60
2023-04-02T05:56:20.541Z,14.75
2023-04-02T05:59:00.757Z,11.00
2023-04-02T06:01:45.390Z,13.27
2023-04-02T06:04:21.534Z,13.10
2023-04-02T06:07:01.767Z,11.57
2023-04-02T06:09:57.308Z,9.63
2023-04-02T06:12:31.160Z,10.48
2023-04-02T06:14:57.973Z,11.25
2023-04-02T06:17:24.705Z,6.53
2023-04-02T06:19:54.511Z,5.55
2023-04-02T06:22:24.339Z,7.05
2023-04-02T06:25:18.210Z,9.60
2023-04-02T06:27:46.740Z,8.43
2023-04-02T06:30:41.673Z,6.53
2023-04-02T06:33:11.776Z,7.95
2023-04-02T06:35:43.267Z,7.93
2023-04-02T06:38:19.542Z,6.30
2023-04-02T06:40:53.322Z,10.57
2023-04-02T06:43:26.671Z,10.05
2023-04-02T06:45:56.560Z,8.07
2023-04-02T06:48:25.407Z,6.95
2023-04-02T06:51:01.990Z,7.40
2023-04-02T06:53:34.195Z,9.88
2023-04-02T06:56:15.813Z,8.23
2023-04-02T06:58:42.330Z,5.57
2023-04-02T07:01:16.722Z,12.25
2023-04-02T07:03:43.720Z,10.18
2023-04-02T07:06:18.209Z,8.98
2023-04-02T07:08:45.163Z,6.53
2023-04-02T07:11:20.922Z,8.20
2023-04-02T07:13:50.528Z,6.47
2023-04-02T07:16:24.889Z,6.45
2023-04-02T07:18:52.796Z,7.63
2023-04-02T07:21:19.289Z,7.53
2023-04-02T07:23:45.828Z,8.35
2023-04-02T07:26:18.247Z,7.00
2023-04-02T07:28:44.890Z,5.93
2023-04-02T07:31:27.189Z,8.93
2023-04-02T07:33:57.994Z,10.75
2023-04-02T07:36:25.790Z,9.50
2023-04-02T07:38:52.418Z,6.57
2023-04-02T07:41:19.678Z,6.95
2023-04-02T07:43:46.636Z,8.02
2023-04-02T07:46:16.611Z,9.57
2023-04-02T07:48:44.170Z,6.50
2023-04-02T07:51:25.840Z,10.60
2023-04-02T07:53:55.980Z,10.02
2023-04-02T07:56:24.957Z,5.30
2023-04-02T07:58:51.546Z,6.55
2023-04-02T08:01:26.216Z,9.20
2023-04-02T08:03:54.907Z,9.85
2023-04-02T08:06:22.501Z,6.35
2023-04-02T08:08:49.803Z,4.90
2023-04-02T08:11:16.873Z,10.07
2023-04-02T08:13:43.496Z,8.82
2023-04-02T08:16:10.603Z,6.85
2023-04-02T08:18:37.519Z,5.90
2023-04-02T08:21:08.054Z,9.45
2023-04-02T08:23:35.709Z,8.93
2023-04-02T08:26:06.056Z,8.23
2023-04-02T08:28:32.561Z,6.88
2023-04-02T08:30:59.145Z,8.85
2023-04-02T08:33:26.199Z,5.88
2023-04-02T08:35:52.869Z,6.82
2023-04-02T08:38:21.894Z,6.10
2023-04-02T08:40:54.631Z,7.22
2023-04-02T08:43:50.557Z,7.70
2023-04-02T08:46:26.901Z,6.57
2023-04-02T08:48:58.127Z,8.50
2023-04-02T08:51:26.320Z,7.97
2023-04-02T08:54:01.742Z,8.60
2023-04-02T08:56:36.815Z,8.25
2023-04-02T08:59:25.134Z,8.65
2023-04-02T09:02:19.203Z,8.30
2023-04-02T09:04:46.038Z,11.45
2023-04-02T09:07:16.578Z,7.60
2023-04-02T09:09:46.539Z,6.63
2023-04-02T09:12:24.215Z,8.10
2023-04-02T09:15:24.611Z,6.90
2023-04-02T09:18:11.818Z,9.00
2023-04-02T09:20:38.574Z,7.95
2023-04-02T09:23:05.897Z,9.88
2023-04-02T09:25:33.374Z,9.48
2023-04-02T09:28:03.481Z,10.27
2023-04-02T09:30:36.205Z,7.50
2023-04-02T09:33:07.791Z,10.75
2023-04-02T09:35:37.815Z,7.35
2023-04-02T09:38:32.899Z,8.38
2023-04-02T09:41:05.739Z,4.35
2023-04-02T09:43:37.259Z,9.45
2023-04-02T09:46:06.923Z,7.38
2023-04-02T09:48:39.417Z,8.48
2023-04-02T09:51:15.401Z,7.00
2023-04-02T09:53:43.552Z,13.57
2023-04-02T09:56:11.927Z,6.72
2023-04-02T09:58:39.465Z,11.05
2023-04-02T10:01:11.411Z,9.10
2023-04-02T10:06:14.243Z,8.07
2023-04-02T10:08:43.368Z,7.03
2023-04-02T10:11:18.137Z,8.48
2023-04-02T10:13:50.976Z,5.30
2023-04-02T10:16:33.241Z,5.47
2023-04-02T10:19:07.220Z,7.07
2023-04-02T10:21:37.303Z,8.25
2023-04-02T10:24:14.975Z,5.68
2023-04-02T10:27:11.477Z,8.68
2023-04-02T10:29:52.569Z,5.28
2023-04-02T10:32:36.200Z,6.28
2023-04-02T10:35:19.204Z,8.57
2023-04-02T10:37:45.803Z,7.97
2023-04-02T10:40:31.677Z,10.80
2023-04-02T10:43:24.199Z,6.10
2023-04-02T10:46:14.371Z,6.65
2023-04-02T10:49:17.999Z,7.68
2023-04-02T10:51:51.518Z,6.65
2023-04-02T10:54:28.052Z,7.28
2023-04-02T10:57:08.985Z,4.00
2023-04-02T10:59:39.914Z,6.25
2023-04-02T11:02:24.626Z,7.70
2023-04-02T11:04:57.541Z,9.63
2023-04-02T11:07:30.885Z,4.50
2023-04-02T11:09:59.778Z,6.97
2023-04-02T11:12:54.831Z,5.72
2023-04-02T11:15:22.075Z,3.67
2023-04-02T11:17:49.307Z,10.15
2023-04-02T11:20:56.220Z,5.32
2023-04-02T11:23:26.615Z,7.90
2023-04-02T11:26:28.005Z,7.40
2023-04-02T11:29:13.148Z,6.55
2023-04-02T11:31:39.782Z,6.85
2023-04-02T11:34:06.388Z,4.60
2023-04-02T11:37:08.217Z,7.82
2023-04-02T11:39:53.475Z,9.30
2023-04-02T11:42:24.968Z,9.07
2023-04-02T11:44:53.093Z,5.70
2023-04-02T11:47:20.950Z,6.30
2023-04-02T11:49:57.805Z,5.18
2023-04-02T11:52:26.340Z,6.20
2023-04-02T11:54:58.827Z,5.90
2023-04-02T11:57:50.795Z,8.68
2023-04-02T12:00:48.468Z,6.45
2023-04-02T12:03:33.787Z,9.45
2023-04-02T12:06:42.295Z,8.85
2023-04-02T12:09:27.998Z,6.18
2023-04-02T12:12:15.745Z,8.43
2023-04-02T12:14:45.518Z,4.43
2023-04-02T12:17:35.469Z,4.25
2023-04-02T12:20:09.171Z,9.23
2023-04-02T12:22:47.293Z,6.03
2023-04-02T12:25:31.354Z,5.85
2023-04-02T12:28:09.722Z,4.88
2023-04-02T12:30:38.336Z,7.57
2023-04-02T12:33:38.669Z,7.63
2023-04-02T12:36:28.997Z,6.40
2023-04-02T12:38:57.630Z,4.20
2023-04-02T12:41:30.200Z,6.53
2023-04-02T12:44:02.651Z,5.57
2023-04-02T12:46:35.077Z,4.88
2023-04-02T12:49:20.649Z,6.15
2023-04-02T12:51:51.764Z,7.68
2023-04-02T12:54:20.621Z,5.80
2023-04-02T12:56:48.908Z,7.57
2023-04-02T12:59:36.415Z,7.32
2023-04-02T13:02:16.264Z,6.40
2023-04-02T13:04:53.548Z,6.38
2023-04-02T13:07:23.219Z,5.75
2023-04-02T13:09:52.972Z,4.13
2023-04-02T13:12:32.437Z,8.07
2023-04-02T13:15:05.771Z,5.88
2023-04-02T13:17:49.247Z,5.22
2023-04-02T13:20:31.114Z,3.53
2023-04-02T13:22:59.404Z,3.90
2023-04-02T13:25:37.151Z,5.13
2023-04-02T13:28:03.641Z,5.20
2023-04-02T13:30:30.489Z,7.68
2023-04-02T13:32:56.986Z,6.75
2023-04-02T13:35:23.582Z,6.82
2023-04-02T13:37:50.221Z,5.80
2023-04-02T13:40:19.119Z,6.82
2023-04-02T13:42:49.693Z,6.07
2023-04-02T13:45:25.382Z,5.43
2023-04-02T13:47:52.180Z,6.20
2023-04-02T13:50:23.893Z,4.60
2023-04-02T13:52:51.489Z,11.23
2023-04-02T13:55:20.937Z,5.72
2023-04-02T13:57:47.495Z,7.45
2023-04-02T14:00:14.313Z,5.70
2023-04-02T14:02:46.062Z,6.07
2023-04-02T14:05:18.749Z,5.53
2023-04-02T14:08:16.558Z,4.07
2023-04-02T14:11:07.506Z,7.78
2023-04-02T14:13:43.166Z,5.80
2023-04-02T14:16:37.657Z,4.18
2023-04-02T14:19:43.094Z,7.95
2023-04-02T14:22:35.929Z,6.47
2023-04-02T14:25:06.157Z,5.55
2023-04-02T14:27:54.166Z,2.13
2023-04-02T14:30:32.993Z,5.45
2023-04-02T14:33:09.275Z,5.57
2023-04-02T14:35:38.303Z,4.63
2023-04-02T14:38:23.169Z,6.93
2023-04-02T14:40:50.235Z,3.85
2023-04-02T14:43:25.332Z,4.32
2023-04-02T14:46:01.735Z,4.18
2023-04-02T14:48:59.243Z,5.20
2023-04-02T14:51:40.664Z,4.07
2023-04-02T14:54:17.659Z,4.65
2023-04-02T14:56:55.411Z,2.65
2023-04-02T14:59:34.040Z,2.90
2023-04-02T15:02:09.219Z,3.55
2023-04-02T15:04:43.384Z,5.25
2023-04-02T15:07:25.577Z,3.78
2023-04-02T15:10:06.559Z,5.60
2023-04-02T15:12:37.711Z,5.32
2023-04-02T15:15:38.908Z,3.15
2023-04-02T15:18:11.007Z,5.50
2023-04-02T15:20:52.463Z,4.50
2023-04-02T15:23:31.276Z,4.07
2023-04-02T15:26:12.454Z,5.70
2023-04-02T15:28:59.218Z,9.90
2023-04-02T15:31:28.131Z,2.85
2023-04-02T15:34:18.940Z,2.55
2023-04-02T15:37:00.933Z,5.82
2023-04-02T15:39:46.084Z,6.20
2023-04-02T15:42:23.790Z,6.68
2023-04-02T15:45:02.214Z,9.20
2023-04-02T15:47:41.279Z,8.00
2023-04-02T15:50:08.086Z,5.70
2023-04-02T15:52:58.993Z,4.38
2023-04-02T15:55:59.718Z,8.32
2023-04-02T15:58:32.119Z,5.75
2023-04-02T16:01:11.545Z,5.55
2023-04-02T16:04:12.255Z,7.72
2023-04-02T16:07:25.102Z,6.55
2023-04-02T16:09:54.631Z,3.53
2023-04-02T16:12:21.629Z,4.25
2023-04-02T16:14:49.544Z,5.63
2023-04-02T16:17:40.708Z,6.55
2023-04-02T16:20:27.903Z,5.30
2023-04-02T16:23:04.818Z,1.83
2023-04-02T16:25:38.811Z,5.57
2023-04-02T16:28:19.965Z,7.53
2023-04-02T16:31:28.538Z,5.00
2023-04-02T16:34:05.849Z,6.68
2023-04-02T16:37:05.011Z,4.18
2023-04-02T16:39:55.568Z,7.32
2023-04-02T16:42:40.875Z,4.50
2023-04-02T16:45:23.586Z,8.75
2023-04-02T16:47:54.230Z,6.93
2023-04-02T16:50:58.959Z,3.63
2023-04-02T16:54:01.514Z,7.50
2023-04-02T16:56:41.130Z,6.32
2023-04-02T16:59:35.364Z,8.50
2023-04-02T17:02:21.447Z,8.40
2023-04-02T17:04:58.501Z,7.93
2023-04-02T17:07:30.795Z,5.28
2023-04-02T17:10:34.855Z,4.07
2023-04-02T17:13:27.849Z,4.07
2023-04-02T17:15:59.837Z,4.10
2023-04-02T17:18:26.459Z,4.88
2023-04-02T17:21:04.849Z,5.15
2023-04-02T17:23:38.431Z,3.63
2023-04-02T17:26:11.244Z,12.45
2023-04-02T17:28:39.493Z,6.25
2023-04-02T17:31:17.270Z,6.10
2023-04-02T17:33:43.794Z,3.55
2023-04-02T17:36:29.912Z,4.30
2023-04-02T17:39:08.435Z,6.35
2023-04-02T17:41:49.458Z,6.68
2023-04-02T17:44:28.108Z,4.45
2023-04-02T17:47:08.659Z,6.55
2023-04-02T17:49:47.285Z,6.57
2023-04-02T17:52:37.606Z,10.70
2023-04-02T17:55:27.951Z,5.55
2023-04-02T17:58:05.109Z,5.05
2023-04-02T18:00:53.411Z,7.03
2023-04-02T18:03:27.441Z,4.88
2023-04-02T18:06:18.910Z,7.60
2023-04-02T18:09:12.015Z,4.18
2023-04-02T18:12:03.916Z,4.13
2023-04-02T18:15:02.929Z,5.20
2023-04-02T18:17:52.829Z,5.95
2023-04-02T18:20:27.501Z,2.88
2023-04-02T18:22:59.636Z,4.28
2023-04-02T18:25:55.358Z,9.57
2023-04-02T18:28:33.552Z,4.43
2023-04-02T18:31:13.709Z,4.47
2023-04-02T18:33:52.019Z,1.35
2023-04-02T18:36:27.616Z,5.32
2023-04-02T18:39:32.918Z,7.70
2023-04-02T18:42:10.016Z,5.25
2023-04-02T18:44:54.545Z,5.93
2023-04-02T18:47:35.092Z,7.45
2023-04-02T18:50:18.143Z,5.57
2023-04-02T18:52:45.841Z,4.32
2023-04-02T18:55:19.876Z,3.95
2023-04-02T18:57:52.194Z,4.47
2023-04-02T19:00:28.678Z,7.03
2023-04-02T19:02:59.268Z,3.97
2023-04-02T19:05:35.112Z,4.00
2023-04-02T19:08:19.557Z,3.20
2023-04-02T19:10:51.202Z,4.88
2023-04-02T19:13:19.850Z,8.15
2023-04-02T19:16:14.966Z,8.70
2023-04-02T19:18:41.449Z,6.30
2023-04-02T19:21:19.922Z,5.00
2023-04-02T19:24:19.364Z,5.60
2023-04-02T19:26:51.497Z,7.30
2023-04-02T19:29:46.382Z,6.55
2023-04-02T19:32:31.913Z,9.80
2023-04-02T19:35:07.421Z,9.45
2023-04-02T19:37:43.680Z,7.13
2023-04-02T19:40:23.478Z,6.25
2023-04-02T19:42:52.640Z,6.68
2023-04-02T19:45:24.986Z,6.95
2023-04-02T19:47:51.568Z,6.45
2023-04-02T19:50:18.094Z,9.02
2023-04-02T19:52:44.603Z,6.38
2023-04-02T19:55:11.152Z,7.20
2023-04-02T19:57:37.881Z,5.68
2023-04-02T20:00:05.112Z,7.10
2023-04-02T20:02:31.641Z,5.68
2023-04-02T20:04:58.159Z,5.88
2023-04-02T20:07:24.666Z,7.78
2023-04-02T20:09:51.152Z,7.10
2023-04-02T20:12:17.647Z,8.60
2023-04-02T20:14:44.132Z,4.72
2023-04-02T20:17:10.776Z,7.93
2023-04-02T20:19:37.255Z,8.75
2023-04-02T20:22:03.941Z,6.00
2023-04-02T20:24:30.549Z,5.47
2023-04-02T20:26:57.053Z,6.55
2023-04-02T20:29:27.677Z,9.27
2023-04-02T20:31:54.199Z,5.93
2023-04-02T20:34:21.107Z,6.53
2023-04-02T20:36:47.728Z,9.35
2023-04-02T20:39:19.236Z,8.95
2023-04-02T20:41:48.716Z,10.57
2023-04-02T20:44:15.886Z,6.07
2023-04-02T20:46:42.441Z,7.25
2023-04-02T20:49:09.054Z,7.20
2023-04-02T20:51:35.589Z,6.65
2023-04-02T20:54:02.648Z,7.60
2023-04-02T20:56:29.423Z,8.88
2023-04-02T20:58:55.972Z,5.28
2023-04-02T21:01:24.935Z,7.05
2023-04-02T21:03:56.976Z,8.40
2023-04-02T21:06:25.545Z,6.20
2023-04-02T21:08:54.297Z,8.45
2023-04-02T21:11:23.389Z,9.77
2023-04-02T21:13:53.545Z,8.98
2023-04-02T21:16:31.699Z,6.47
2023-04-02T21:19:03.724Z,8.63
2023-04-02T21:24:06.482Z,7.22
2023-04-02T21:26:38.068Z,6.00
2023-04-02T21:29:05.868Z,9.63
2023-04-02T21:31:38.118Z,8.07
2023-04-02T21:34:06.076Z,10.77
2023-04-02T21:36:40.075Z,7.78
2023-04-02T21:39:09.530Z,7.35
2023-04-02T21:41:42.546Z,8.40
2023-04-02T21:44:15.806Z,8.32
2023-04-02T21:46:43.147Z,8.15
2023-04-02T21:49:16.737Z,8.02
2023-04-02T21:51:45.676Z,7.95
2023-04-02T21:54:18.958Z,7.68
2023-04-02T21:56:46.707Z,11.40
2023-04-02T21:59:18.179Z,5.40
2023-04-02T22:01:48.201Z,11.75
2023-04-02T22:04:20.761Z,7.70
2023-04-02T22:06:48.000Z,9.57
2023-04-02T22:09:21.160Z,9.43
2023-04-02T22:11:54.466Z,10.43
2023-04-02T22:14:24.598Z,9.90
2023-04-02T22:16:54.985Z,10.43
2023-04-02T22:19:21.705Z,10.15
2023-04-02T22:21:48.139Z,8.35
2023-04-02T22:24:18.620Z,8.88
2023-04-02T22:26:46.065Z,9.63
2023-04-02T22:29:12.637Z,12.15
2023-04-02T22:31:39.328Z,9.90
2023-04-02T22:34:10.150Z,8.20
2023-04-02T22:36:36.668Z,9.18
2023-04-02T22:39:06.775Z,11.57
2023-04-02T22:41:33.734Z,9.30
2023-04-02T22:44:01.594Z,9.02
2023-04-02T22:46:29.408Z,8.38
2023-04-02T22:49:08.364Z,13.20
2023-04-02T22:51:40.000Z,7.38
2023-04-02T22:54:06.872Z,8.65
2023-04-02T22:56:35.243Z,11.88
2023-04-02T22:59:01.744Z,6.88
2023-04-02T23:01:31.659Z,13.73
2023-04-02T23:03:58.538Z,10.18
2023-04-02T23:06:29.265Z,9.95
2023-04-02T23:08:55.950Z,8.32
2023-04-02T23:11:25.936Z,12.57
2023-04-02T23:13:54.295Z,7.10
2023-04-02T23:16:22.599Z,12.80
2023-04-02T23:18:49.804Z,7.25
2023-04-02T23:21:18.409Z,7.05
2023-04-02T23:23:47.838Z,9.13
2023-04-02T23:26:21.178Z,10.63
2023-04-02T23:28:48.618Z,7.82
2023-04-02T23:31:20.960Z,8.93
2023-04-02T23:33:47.472Z,9.00
2023-04-02T23:36:20.510Z,7.10
2023-04-02T23:38:49.817Z,5.28
2023-04-02T23:41:17.533Z,8.50
2023-04-02T23:43:44.103Z,10.57
2023-04-02T23:46:10.756Z,10.70
2023-04-02T23:48:37.573Z,13.65
2023-04-02T23:51:08.841Z,9.18
2023-04-02T23:53:35.870Z,12.18
2023-04-02T23:56:02.448Z,6.63
2023-04-02T23:58:29.450Z,7.75
